Time;durP1;ratioP1;P1;durP2;ratioP2;P2;SDS_P1;SDS_P2;PMS_P1;PMS_P2;Temp;Humidity;BMP_temperature;BMP_pressure;BME280_temperature;BME280_humidity;BME280_pressure;Samples;Min_cycle;Max_cycle;Signal;HPM_P1;HPM_P2
2021/08/01 00:00:08;;;;;;;13.77;5.03;;;;;;;15.45;83.62;100927.94;5080186;28;20054;-70
2021/08/01 00:02:33;;;;;;;15.75;5.30;;;;;;;15.70;82.07;100937.88;5078899;28;20060;-70
2021/08/01 00:04:59;;;;;;;15.25;5.28;;;;;;;15.36;83.85;100935.47;5079222;28;20039;-70
2021/08/01 00:07:25;;;;;;;12.82;5.15;;;;;;;15.52;82.93;100929.28;5079005;28;20099;-70
2021/08/01 00:09:55;;;;;;;9.93;4.93;;;;;;;15.44;83.15;100929.72;5080760;28;20036;-70
2021/08/01 00:12:21;;;;;;;11.43;4.78;;;;;;;15.58;82.33;100938.63;5063182;28;20044;-70
2021/08/01 00:14:46;;;;;;;11.95;5.70;;;;;;;15.41;83.03;100927.28;5080638;28;20100;-70
2021/08/01 00:17:12;;;;;;;14.50;5.50;;;;;;;15.09;84.56;100939.72;5080343;28;20289;-70
2021/08/01 00:19:37;;;;;;;17.80;5.50;;;;;;;15.08;85.01;100938.88;5078723;28;20356;-70
2021/08/01 00:22:03;;;;;;;20.25;5.70;;;;;;;15.00;85.36;100933.19;5080194;28;20278;-70
2021/08/01 00:24:28;;;;;;;14.30;5.93;;;;;;;14.84;85.58;100933.22;5079584;28;20117;-70
2021/08/01 00:26:54;;;;;;;15.90;5.93;;;;;;;14.98;85.08;100924.53;5079458;28;20036;-70
2021/08/01 00:29:19;;;;;;;15.73;5.80;;;;;;;14.86;86.09;100925.22;5080392;28;20035;-70
2021/08/01 00:31:44;;;;;;;13.30;6.63;;;;;;;14.90;85.42;100930.25;5080827;28;20335;-70
2021/08/01 00:34:10;;;;;;;18.88;6.18;;;;;;;14.90;86.08;100930.25;5081256;28;20032;-70
2021/08/01 00:36:35;;;;;;;15.73;6.30;;;;;;;15.13;84.77;100928.91;5080093;28;20032;-70
2021/08/01 00:39:01;;;;;;;16.90;5.97;;;;;;;15.07;84.43;100928.41;5079290;28;20032;-70
2021/08/01 00:41:26;;;;;;;23.08;6.90;;;;;;;14.93;86.19;100927.41;5078726;28;20048;-70
2021/08/01 00:43:51;;;;;;;18.58;6.72;;;;;;;15.08;85.19;100935.38;5080526;28;20046;-70
2021/08/01 00:46:17;;;;;;;23.55;6.65;;;;;;;15.26;84.86;100928.19;5078730;28;20105;-70
2021/08/01 00:48:42;;;;;;;22.92;6.82;;;;;;;15.23;85.24;100923.94;5079109;28;20220;-70
2021/08/01 00:51:08;;;;;;;11.50;5.95;;;;;;;15.14;85.35;100925.31;5059109;28;20306;-70
2021/08/01 00:53:33;;;;;;;16.90;6.70;;;;;;;15.13;85.58;100918.38;5045924;28;20253;-70
2021/08/01 00:55:59;;;;;;;18.00;6.70;;;;;;;15.16;85.61;100919.97;5078769;28;20215;-70
2021/08/01 00:58:24;;;;;;;27.95;7.13;;;;;;;15.07;85.93;100916.06;5079827;28;20036;-70
2021/08/01 01:04:29;;;;;;;16.88;6.03;;;;;;;15.13;85.69;100907.81;5069069;28;20056;-70
2021/08/01 01:07:11;;;;;;;23.73;7.18;;;;;;;15.32;85.47;100912.00;5082215;28;20021;-70
2021/08/01 01:10:06;;;;;;;18.15;7.18;;;;;;;15.28;85.17;100905.19;5062198;28;20036;-70
2021/08/01 01:12:51;;;;;;;17.95;6.85;;;;;;;15.35;85.30;100907.41;5070776;28;20378;-70
2021/08/01 01:15:20;;;;;;;20.05;6.60;;;;;;;15.36;85.00;100902.97;5078578;28;20032;-70
2021/08/01 01:17:47;;;;;;;27.45;7.13;;;;;;;15.41;84.96;100898.25;5061649;28;20039;-70
2021/08/01 01:20:37;;;;;;;19.15;6.50;;;;;;;15.28;85.66;100899.91;5061577;28;20232;-70
2021/08/01 01:23:26;;;;;;;21.17;6.32;;;;;;;15.26;85.76;100897.38;5078756;28;20254;-70
2021/08/01 01:26:14;;;;;;;23.38;7.57;;;;;;;15.46;84.83;100901.47;5078757;28;20047;-70
2021/08/01 01:28:50;;;;;;;18.83;7.07;;;;;;;15.51;84.79;100894.09;5077951;28;20236;-70
2021/08/01 01:31:43;;;;;;;21.80;7.20;;;;;;;15.44;85.42;100897.22;5079819;28;20216;-70
2021/08/01 01:34:12;;;;;;;15.80;6.20;;;;;;;15.60;84.48;100895.34;5079958;28;20052;-70
2021/08/01 01:36:37;;;;;;;13.45;5.75;;;;;;;15.72;83.94;100891.13;5079425;28;20024;-70
2021/08/01 01:39:04;;;;;;;20.38;7.30;;;;;;;15.60;85.04;100891.84;5078721;28;20032;-70
2021/08/01 01:41:29;;;;;;;21.63;7.53;;;;;;;15.69;84.63;100891.28;5058071;28;20108;-70
2021/08/01 01:43:55;;;;;;;19.83;7.38;;;;;;;15.64;84.67;100893.38;5069722;28;20059;-70
2021/08/01 01:46:20;;;;;;;24.20;8.27;;;;;;;15.72;84.43;100886.69;5061330;28;20047;-70
2021/08/01 01:48:46;;;;;;;18.70;8.07;;;;;;;15.97;83.64;100890.47;5078522;28;20031;-70
2021/08/01 01:51:12;;;;;;;29.98;9.75;;;;;;;16.03;83.07;100883.97;5061440;28;20040;-70
2021/08/01 01:53:37;;;;;;;25.02;8.80;;;;;;;15.83;83.60;100882.56;5078398;28;20032;-70
2021/08/01 01:56:02;;;;;;;22.90;8.77;;;;;;;15.87;82.97;100881.44;5058677;28;20510;-70
2021/08/01 01:58:28;;;;;;;20.02;7.95;;;;;;;16.41;80.46;100885.94;5078084;28;20032;-70
2021/08/01 02:00:54;;;;;;;24.80;9.00;;;;;;;16.25;81.40;100886.94;5079761;28;20052;-70
2021/08/01 02:03:19;;;;;;;21.85;8.70;;;;;;;15.85;83.15;100881.53;5079336;28;20051;-70
2021/08/01 02:05:45;;;;;;;17.23;8.00;;;;;;;16.01;81.85;100881.41;5077937;28;20086;-70
2021/08/01 02:08:10;;;;;;;24.67;9.77;;;;;;;15.78;82.73;100879.34;5078493;28;20020;-70
2021/08/01 02:10:39;;;;;;;20.77;9.07;;;;;;;15.76;82.74;100883.88;5077782;28;20024;-70
2021/08/01 02:13:08;;;;;;;17.52;7.50;;;;;;;15.83;82.16;100880.78;5078150;28;20032;-70
2021/08/01 02:15:45;;;;;;;;;;;;;;;15.63;83.64;100879.31;5078314;28;20032;-70
2021/08/01 02:18:16;;;;;;;22.58;9.15;;;;;;;15.61;83.16;100882.97;5079054;28;19912;-70
2021/08/01 02:20:46;;;;;;;18.55;8.45;;;;;;;15.99;80.98;100882.44;5079237;28;20024;-70
2021/08/01 02:23:17;;;;;;;23.38;8.88;;;;;;;15.81;81.92;100885.31;5057950;28;20044;-70
2021/08/01 02:25:42;;;;;;;22.08;8.80;;;;;;;15.40;83.81;100877.22;5077283;28;20032;-70
2021/08/01 02:28:08;;;;;;;24.05;7.65;;;;;;;15.89;81.23;100884.81;5079557;28;20048;-70
2021/08/01 02:30:34;;;;;;;18.38;7.65;;;;;;;15.87;81.15;100886.72;5061341;28;20036;-70
2021/08/01 02:33:00;;;;;;;26.00;8.77;;;;;;;15.68;81.87;100881.66;5053046;28;20059;-70
2021/08/01 02:35:25;;;;;;;22.23;9.07;;;;;;;15.47;83.27;100886.47;5078085;28;20033;-70
2021/08/01 02:37:52;;;;;;;23.20;9.60;;;;;;;15.49;83.07;100888.06;5071368;28;20036;-70
2021/08/01 02:40:18;;;;;;;24.65;9.20;;;;;;;15.31;83.58;100884.75;5061264;28;20121;-70
2021/08/01 02:42:44;;;;;;;22.73;9.65;;;;;;;15.16;84.36;100885.66;5053162;28;20032;-70
2021/08/01 02:45:09;;;;;;;24.95;10.13;;;;;;;15.07;84.74;100878.31;5065335;28;20024;-71
2021/08/01 02:47:34;;;;;;;28.83;10.32;;;;;;;15.24;84.00;100885.22;5081062;28;20119;-71
2021/08/01 02:50:01;;;;;;;24.02;10.63;;;;;;;15.22;84.69;100873.91;5079666;28;20032;-71
2021/08/01 02:52:55;;;;;;;25.13;10.23;;;;;;;15.29;83.81;100880.50;5081031;28;20036;-71
2021/08/01 02:55:20;;;;;;;22.75;10.20;;;;;;;15.40;83.95;100880.72;5079514;28;20046;-71
2021/08/01 02:57:47;;;;;;;24.00;9.35;;;;;;;15.35;84.50;100888.91;5080933;28;20277;-71
2021/08/01 03:00:13;;;;;;;25.08;10.55;;;;;;;15.17;84.49;100876.81;5060074;28;20028;-71
2021/08/01 03:02:38;;;;;;;18.70;9.45;;;;;;;15.80;81.66;100875.66;5045276;28;20082;-71
2021/08/01 03:05:04;;;;;;;21.23;9.43;;;;;;;15.72;81.54;100876.13;5062515;28;20275;-71
2021/08/01 03:07:30;;;;;;;28.52;9.68;;;;;;;15.92;81.03;100871.44;5046957;28;20289;-71
2021/08/01 03:09:55;;;;;;;21.50;9.65;;;;;;;15.32;83.50;100875.06;5081279;28;20040;-71
2021/08/01 03:12:21;;;;;;;22.52;10.00;;;;;;;15.30;83.85;100871.66;5081229;28;20051;-71
2021/08/01 03:14:46;;;;;;;25.83;10.52;;;;;;;15.24;83.62;100867.59;5073237;28;20025;-71
2021/08/01 03:17:12;;;;;;;26.25;10.10;;;;;;;15.16;84.06;100867.22;5081325;28;20331;-71
2021/08/01 03:19:39;;;;;;;28.77;11.63;;;;;;;15.03;84.50;100869.72;5080887;28;20028;-71
2021/08/01 03:22:05;;;;;;;23.65;9.23;;;;;;;15.21;83.96;100869.56;5080961;28;20204;-71
2021/08/01 03:24:30;;;;;;;34.80;11.73;;;;;;;14.96;85.03;100871.03;5081496;28;20048;-71
2021/08/01 03:26:56;;;;;;;26.67;12.13;;;;;;;14.93;84.93;100872.03;5080708;28;20043;-71
2021/08/01 03:29:21;;;;;;;24.95;11.70;;;;;;;14.77;85.62;100873.84;5080312;28;20103;-71
2021/08/01 03:31:47;;;;;;;26.92;11.80;;;;;;;14.93;85.03;100873.81;5080761;28;20017;-71
2021/08/01 03:34:12;;;;;;;34.35;13.15;;;;;;;14.85;85.38;100862.91;5081653;28;20043;-71
2021/08/01 03:36:38;;;;;;;30.35;12.88;;;;;;;14.75;85.85;100863.44;5081654;28;20044;-71
2021/08/01 03:39:04;;;;;;;37.35;13.93;;;;;;;14.71;86.02;100868.94;5080988;28;20051;-70
2021/08/01 03:41:29;;;;;;;36.38;13.30;;;;;;;14.98;85.04;100862.06;5080368;28;20289;-71
2021/08/01 03:43:54;;;;;;;30.83;13.60;;;;;;;14.71;86.19;100867.16;5081620;28;20040;-71
2021/08/01 03:46:20;;;;;;;33.13;13.40;;;;;;;14.81;85.37;100875.41;5063755;28;20137;-71
2021/08/01 03:48:45;;;;;;;33.47;13.20;;;;;;;14.65;86.01;100871.94;5081256;28;20223;-71
2021/08/01 03:51:11;;;;;;;29.13;13.15;;;;;;;14.74;85.65;100874.91;5081792;28;20308;-71
2021/08/01 03:53:36;;;;;;;32.35;14.38;;;;;;;14.89;85.15;100873.16;5081336;28;20048;-71
2021/08/01 03:56:03;;;;;;;33.03;14.02;;;;;;;14.84;85.52;100867.28;5081627;28;20096;-71
2021/08/01 03:58:28;;;;;;;35.83;14.07;;;;;;;14.73;85.89;100883.72;5062719;28;20032;-71
2021/08/01 04:00:54;;;;;;;36.92;15.05;;;;;;;14.70;85.88;100870.75;5081351;28;20215;-71
2021/08/01 04:03:19;;;;;;;31.50;14.18;;;;;;;14.58;86.49;100874.91;5080977;28;20025;-71
2021/08/01 04:05:45;;;;;;;27.90;13.60;;;;;;;14.76;86.04;100874.81;5080980;28;20028;-71
2021/08/01 04:08:10;;;;;;;42.10;14.95;;;;;;;14.87;86.14;100871.56;5081241;28;20256;-71
2021/08/01 04:10:35;;;;;;;33.15;14.38;;;;;;;14.97;85.18;100873.56;5080578;28;20048;-71
2021/08/01 04:13:01;;;;;;;31.23;14.45;;;;;;;14.76;86.40;100873.00;5081184;28;20304;-71
2021/08/01 04:15:26;;;;;;;37.17;15.63;;;;;;;14.59;86.82;100873.16;5080108;28;20044;-71
2021/08/01 04:17:52;;;;;;;30.73;15.43;;;;;;;14.81;85.81;100869.25;5081154;28;20265;-71
2021/08/01 04:20:17;;;;;;;26.63;14.63;;;;;;;14.97;85.13;100880.63;5079439;28;20056;-71
2021/08/01 04:22:43;;;;;;;29.75;14.85;;;;;;;14.78;86.42;100886.13;5079506;28;20050;-71
2021/08/01 04:25:09;;;;;;;38.33;16.00;;;;;;;14.72;86.51;100882.03;5079372;28;20033;-71
2021/08/01 04:27:34;;;;;;;41.75;16.70;;;;;;;14.71;86.46;100880.34;5079173;28;20029;-71
2021/08/01 04:30:00;;;;;;;34.20;15.82;;;;;;;15.16;84.38;100883.88;5080560;28;20039;-71
2021/08/01 04:32:25;;;;;;;41.88;15.55;;;;;;;15.12;85.04;100886.81;5080328;28;20054;-71
2021/08/01 04:34:50;;;;;;;36.60;16.75;;;;;;;15.09;85.25;100890.44;5080581;28;20035;-71
2021/08/01 04:37:16;;;;;;;30.63;15.68;;;;;;;15.11;84.94;100880.66;5079172;28;20253;-71
2021/08/01 04:39:41;;;;;;;38.35;15.82;;;;;;;15.39;83.86;100880.78;5080279;28;20052;-71
2021/08/01 04:42:07;;;;;;;34.75;15.40;;;;;;;15.71;82.15;100876.22;5079326;28;20035;-71
2021/08/01 04:44:32;;;;;;;36.25;16.33;;;;;;;15.64;82.45;100873.09;5078515;28;20035;-71
2021/08/01 04:46:57;;;;;;;38.67;16.23;;;;;;;15.34;83.98;100878.47;5079198;28;20036;-71
2021/08/01 04:49:23;;;;;;;40.40;17.85;;;;;;;15.14;84.86;100877.00;5078623;28;20040;-71
2021/08/01 04:51:48;;;;;;;36.90;17.95;;;;;;;15.20;84.79;100881.91;5079643;28;20091;-71
2021/08/01 04:54:14;;;;;;;38.85;17.48;;;;;;;15.21;84.86;100888.91;5060211;28;20029;-71
2021/08/01 04:56:44;;;;;;;33.00;17.50;;;;;;;15.16;85.26;100886.50;5079441;28;20046;-71
2021/08/01 04:59:10;;;;;;;36.13;17.40;;;;;;;15.08;85.25;100887.91;5078819;28;20048;-70
2021/08/01 05:01:35;;;;;;;36.63;17.20;;;;;;;15.22;85.13;100889.72;5079868;28;20032;-71
2021/08/01 05:04:00;;;;;;;35.05;17.20;;;;;;;15.55;83.62;100884.22;5078939;28;20113;-71
2021/08/01 05:06:26;;;;;;;31.23;16.90;;;;;;;15.60;83.57;100899.78;5079423;28;20331;-71
2021/08/01 05:08:51;;;;;;;36.92;17.50;;;;;;;15.84;82.95;100890.38;5075807;28;20143;-71
2021/08/01 05:11:17;;;;;;;38.63;17.45;;;;;;;16.57;80.71;100899.88;5076317;28;20267;-71
2021/08/01 05:13:42;;;;;;;38.55;16.80;;;;;;;16.26;81.69;100891.28;5077336;28;20103;-71
2021/08/01 05:16:07;;;;;;;33.53;16.63;;;;;;;17.66;78.08;100881.13;5076649;28;20028;-71
2021/08/01 05:18:33;;;;;;;29.08;15.20;;;;;;;18.99;72.45;100889.25;5077785;28;20053;-71
2021/08/01 05:20:58;;;;;;;31.08;14.63;;;;;;;19.75;68.69;100876.38;5078012;28;20047;-71
2021/08/01 05:23:24;;;;;;;29.15;14.80;;;;;;;20.30;67.29;100887.06;5076575;28;20044;-71
2021/08/01 05:25:49;;;;;;;22.60;13.95;;;;;;;19.65;68.39;100878.00;5079756;28;20044;-71
2021/08/01 05:28:15;;;;;;;31.10;13.95;;;;;;;20.63;66.21;100879.09;5078031;28;20041;-71
2021/08/01 05:30:40;;;;;;;20.63;12.35;;;;;;;20.41;66.21;100880.00;5077590;28;20057;-71
2021/08/01 05:33:10;;;;;;;18.20;13.38;;;;;;;21.10;64.89;100871.63;5080212;28;20267;-71
2021/08/01 05:35:36;;;;;;;20.15;12.85;;;;;;;21.04;64.01;100870.31;5079144;28;20036;-71
2021/08/01 05:38:02;;;;;;;20.05;11.98;;;;;;;21.60;59.53;100868.31;5078511;28;20081;-71
2021/08/01 05:40:27;;;;;;;19.08;13.02;;;;;;;20.84;65.12;100877.31;5079089;28;20317;-71
2021/08/01 05:42:52;;;;;;;25.67;14.63;;;;;;;21.29;63.25;100874.41;5079961;28;20096;-71
2021/08/01 05:45:18;;;;;;;24.15;14.77;;;;;;;19.99;67.04;100871.84;5078288;28;20040;-71
2021/08/01 05:47:43;;;;;;;26.25;15.43;;;;;;;19.23;70.29;100875.06;5079448;28;20043;-71
2021/08/01 05:50:09;;;;;;;31.52;18.00;;;;;;;18.74;71.58;100876.94;5061711;28;20033;-71
2021/08/01 05:52:35;;;;;;;28.23;16.05;;;;;;;18.52;72.44;100880.31;5078091;28;20354;-71
2021/08/01 05:55:01;;;;;;;31.52;19.63;;;;;;;18.23;73.71;100877.16;5062238;28;20104;-71
2021/08/01 05:57:26;;;;;;;32.28;20.25;;;;;;;18.31;74.67;100873.94;5078853;28;20047;-71
2021/08/01 05:59:52;;;;;;;29.90;20.13;;;;;;;18.08;74.52;100879.09;5079322;28;20277;-71
2021/08/01 06:02:17;;;;;;;28.65;20.05;;;;;;;18.23;73.59;100877.16;5079194;28;20033;-71
2021/08/01 06:04:42;;;;;;;33.72;19.88;;;;;;;18.01;74.48;100884.00;5083251;28;20064;-71
2021/08/01 06:07:08;;;;;;;34.60;22.17;;;;;;;17.61;76.28;100892.06;5083458;28;20029;-71
2021/08/01 06:09:33;;;;;;;35.72;21.88;;;;;;;17.44;77.12;100890.59;5082864;28;20092;-71
2021/08/01 06:11:59;;;;;;;42.40;23.65;;;;;;;17.18;78.57;100895.00;5083711;28;20100;-71
2021/08/01 06:14:24;;;;;;;41.55;23.00;;;;;;;17.27;77.99;100886.44;5082996;28;20354;-70
2021/08/01 06:16:50;;;;;;;42.92;25.42;;;;;;;17.25;78.48;100892.78;5083147;28;20040;-71
2021/08/01 06:19:15;;;;;;;17.25;8.65;;;;;;;18.10;72.71;100884.28;5080713;28;20066;-72
2021/08/01 06:21:40;;;;;;;39.78;23.25;;;;;;;18.02;75.57;100884.81;5083159;28;20033;-72
2021/08/01 06:24:06;;;;;;;20.85;14.02;;;;;;;18.90;71.46;100886.41;5083111;28;20331;-73
2021/08/01 06:26:31;;;;;;;38.55;21.38;;;;;;;18.51;74.38;100888.38;5062110;28;20051;-73
2021/08/01 06:28:57;;;;;;;3.70;3.05;;;;;;;21.16;61.11;100888.94;5081251;28;20044;-73
2021/08/01 06:31:22;;;;;;;8.65;3.38;;;;;;;21.44;60.24;100888.22;5075706;28;20041;-73
2021/08/01 06:33:47;;;;;;;5.03;3.13;;;;;;;21.78;59.62;100892.53;5070000;28;20044;-73
2021/08/01 06:36:13;;;;;;;8.18;2.20;;;;;;;21.70;59.98;100887.00;5077317;28;20074;-73
2021/08/01 06:38:39;;;;;;;4.95;2.88;;;;;;;22.13;58.32;100886.72;5072906;28;20032;-72
2021/08/01 06:41:05;;;;;;;3.58;2.50;;;;;;;22.18;58.10;100881.00;5075717;28;20058;-72
2021/08/01 06:43:31;;;;;;;5.53;2.70;;;;;;;21.65;59.67;100885.59;5079509;28;20413;-72
2021/08/01 06:45:56;;;;;;;4.82;3.00;;;;;;;21.64;60.19;100893.69;5059954;28;20387;-72
2021/08/01 06:48:22;;;;;;;5.68;2.47;;;;;;;21.59;60.36;100890.59;5083207;28;20354;-72
2021/08/01 06:50:48;;;;;;;6.40;2.80;;;;;;;21.48;61.18;100899.50;5076194;28;20025;-72
2021/08/01 06:53:13;;;;;;;4.78;2.88;;;;;;;21.44;61.24;100903.38;5059362;28;20040;-73
2021/08/01 06:55:38;;;;;;;6.05;2.70;;;;;;;21.39;61.04;100902.94;5073970;28;20028;-71
2021/08/01 06:58:04;;;;;;;3.70;2.60;;;;;;;21.29;61.46;100901.06;5077832;28;20050;-71
2021/08/01 07:00:29;;;;;;;7.32;3.40;;;;;;;21.27;61.64;100897.69;5063821;28;20031;-71
2021/08/01 07:02:55;;;;;;;3.97;3.00;;;;;;;21.15;62.08;100903.19;5080978;28;20040;-70
2021/08/01 07:05:21;;;;;;;9.20;5.05;;;;;;;21.10;62.50;100906.25;5092950;28;20078;-70
2021/08/01 07:07:46;;;;;;;15.07;4.28;;;;;;;21.23;61.90;100912.22;5074477;28;20328;-70
2021/08/01 07:10:12;;;;;;;10.35;3.92;;;;;;;21.21;62.46;100921.31;5087343;28;20342;-70
2021/08/01 07:12:41;;;;;;;9.13;3.78;;;;;;;21.18;62.75;100925.09;5080435;28;20047;-70
2021/08/01 07:15:10;;;;;;;10.32;3.70;;;;;;;21.19;62.69;100925.94;5056986;28;20090;-70
2021/08/01 07:17:36;;;;;;;9.70;3.80;;;;;;;21.13;63.23;100931.78;5062882;28;20043;-70
2021/08/01 07:43:25;;;;;;;6.55;3.58;;;;;;;21.06;63.27;100921.63;5071594;27;20171;-70
2021/08/01 07:45:51;;;;;;;6.53;3.67;;;;;;;21.05;63.19;100937.75;5064637;28;20274;-71
2021/08/01 07:48:16;;;;;;;8.88;3.25;;;;;;;21.04;63.64;100950.19;5066979;28;20308;-70
2021/08/01 07:50:42;;;;;;;11.27;3.40;;;;;;;21.02;63.55;100940.66;5068073;28;20032;-70
2021/08/01 09:10:18;;;;;;;2.95;1.70;;;;;;;22.66;57.41;100957.63;5063142;28;20398;-71
2021/08/01 09:12:48;;;;;;;2.72;1.63;;;;;;;22.68;57.53;100958.34;5066182;28;20108;-72
2021/08/01 09:15:17;;;;;;;4.88;1.98;;;;;;;22.78;57.19;100964.56;5064941;28;20071;-72
2021/08/01 09:17:43;;;;;;;1.83;1.65;;;;;;;22.93;57.04;100956.13;5070293;28;20060;-72
2021/08/01 09:20:15;;;;;;;10.18;1.52;;;;;;;22.99;58.02;100960.91;5036802;28;20074;-72
2021/08/01 09:22:40;;;;;;;2.15;1.65;;;;;;;23.11;56.67;100957.16;5062040;28;20309;-72
2021/08/01 09:25:20;;;;;;;3.25;1.60;;;;;;;23.06;56.76;100958.56;5067963;28;20447;-72
2021/08/01 09:27:45;;;;;;;1.83;1.52;;;;;;;22.41;58.65;100965.19;5073399;28;20131;-72
2021/08/01 09:30:11;;;;;;;4.60;2.00;;;;;;;22.10;59.66;100961.66;5071498;28;20037;-72
2021/08/01 09:32:47;;;;;;;3.97;1.60;;;;;;;22.17;59.74;100964.66;5059335;28;20045;-72
2021/08/01 09:35:19;;;;;;;3.90;1.48;;;;;;;22.41;58.71;100967.00;5067073;28;20029;-71
2021/08/01 09:37:54;;;;;;;1.58;1.48;;;;;;;23.27;56.15;100956.56;5074487;28;20032;-71
2021/08/01 09:40:19;;;;;;;2.90;1.58;;;;;;;22.45;58.63;100956.91;5069010;28;20036;-71
2021/08/01 09:42:47;;;;;;;2.55;1.40;;;;;;;22.09;59.82;100959.16;5070990;28;20036;-71
2021/08/01 09:45:14;;;;;;;2.50;1.90;;;;;;;21.92;60.56;100965.94;5068893;28;20036;-71
2021/08/01 09:47:40;;;;;;;2.60;1.75;;;;;;;21.93;60.43;100973.81;5070272;28;20176;-71
2021/08/01 09:50:06;;;;;;;1.65;1.42;;;;;;;22.11;60.10;100966.03;5073388;28;20073;-71
2021/08/01 09:52:32;;;;;;;1.23;1.05;;;;;;;22.27;59.52;100970.91;5070517;28;20401;-71
2021/08/01 09:54:57;;;;;;;4.28;1.98;;;;;;;22.67;58.34;100972.69;5067965;28;20017;-71
2021/08/01 09:57:22;;;;;;;2.25;1.88;;;;;;;22.44;58.95;100969.41;5061508;28;20055;-71
2021/08/01 09:59:48;;;;;;;5.60;2.15;;;;;;;22.26;59.31;100974.53;5059855;28;20025;-71
2021/08/01 10:02:14;;;;;;;5.30;1.90;;;;;;;22.58;58.43;100977.03;5063525;28;20040;-71
2021/08/01 10:04:42;;;;;;;5.47;2.00;;;;;;;22.57;58.16;100979.81;5048158;28;20095;-71
2021/08/01 10:07:12;;;;;;;3.42;2.10;;;;;;;22.67;57.68;100974.53;5068002;28;20248;-71
2021/08/01 10:09:38;;;;;;;12.98;1.98;;;;;;;22.65;57.86;100974.66;5068717;28;20056;-71
2021/08/01 10:12:04;;;;;;;1.80;1.63;;;;;;;22.78;57.03;100974.41;5046020;28;20033;-71
2021/08/01 10:14:30;;;;;;;2.65;1.80;;;;;;;23.01;56.68;100977.63;5061242;28;20039;-71
2021/08/01 10:16:56;;;;;;;2.03;1.73;;;;;;;22.51;57.99;100973.22;5058733;28;20037;-71
2021/08/01 10:19:21;;;;;;;2.25;2.10;;;;;;;22.41;58.39;100983.00;5043131;28;20088;-71
2021/08/01 10:21:51;;;;;;;1.85;1.45;;;;;;;22.23;58.66;100975.63;5052599;28;20094;-71
2021/08/01 10:24:21;;;;;;;2.28;2.08;;;;;;;22.76;56.98;100981.69;5020707;28;20013;-71
2021/08/01 10:26:49;;;;;;;2.40;2.10;;;;;;;22.67;57.36;100978.03;5041117;28;20037;-71
2021/08/01 10:29:20;;;;;;;1.80;1.48;;;;;;;22.17;58.78;100983.31;5039950;28;20033;-71
2021/08/01 10:31:56;;;;;;;2.20;2.00;;;;;;;22.75;57.18;100977.31;5035521;28;20079;-71
2021/08/01 10:34:30;;;;;;;1.48;1.38;;;;;;;23.26;55.61;100975.41;5052209;28;20035;-71
2021/08/01 10:36:55;;;;;;;2.20;1.80;;;;;;;;;;5050157;28;20044;-71
2021/08/01 10:39:21;;;;;;;2.20;1.67;;;;;;;22.63;57.33;100973.94;5054395;28;20200;-71
2021/08/01 10:41:46;;;;;;;4.43;1.90;;;;;;;22.61;57.15;100981.22;5018798;28;20308;-74
2021/08/01 10:44:12;;;;;;;12.35;2.20;;;;;;;22.73;57.10;100980.13;5023498;28;20029;-73
2021/08/01 10:46:41;;;;;;;7.65;2.00;;;;;;;22.91;56.14;100982.97;5041583;28;20242;-71
2021/08/01 10:49:08;;;;;;;18.15;2.80;;;;;;;22.83;57.00;100979.31;5044949;28;20124;-69
2021/08/01 10:51:33;;;;;;;26.33;3.22;;;;;;;24.05;53.33;100980.47;5046418;28;20324;-68
2021/08/01 10:54:31;;;;;;;24.83;3.63;;;;;;;25.01;50.28;100985.44;5032295;28;20071;-68
2021/08/01 10:57:14;;;;;;;14.00;2.90;;;;;;;24.58;51.27;100980.81;5027291;28;20351;-69
2021/08/01 10:59:45;;;;;;;10.60;2.63;;;;;;;24.65;51.29;100992.56;5051523;28;20308;-69
2021/08/01 11:02:21;;;;;;;17.73;4.40;;;;;;;24.02;52.83;100987.94;5044031;28;20029;-69
2021/08/01 11:04:47;;;;;;;16.00;3.15;;;;;;;24.18;52.01;100992.69;5039806;28;20083;-69
2021/08/01 11:07:28;;;;;;;10.48;3.20;;;;;;;23.86;53.00;100999.25;5047893;28;20335;-69
2021/08/01 11:10:06;;;;;;;10.45;3.85;;;;;;;23.78;53.21;100989.25;5051534;28;20033;-69
2021/08/01 11:12:32;;;;;;;13.07;2.72;;;;;;;23.81;53.28;100988.97;5050355;28;20037;-69
2021/08/01 11:15:01;;;;;;;10.45;3.10;;;;;;;23.43;52.87;100985.41;5046698;28;20060;-69
2021/08/01 11:17:51;;;;;;;8.73;2.65;;;;;;;23.50;53.88;100994.53;5047182;28;20037;-69
2021/08/01 11:20:16;;;;;;;7.53;3.08;;;;;;;23.48;53.73;100995.63;5045121;28;20106;-69
2021/08/01 11:22:42;;;;;;;6.40;2.47;;;;;;;23.37;53.84;100996.63;5048656;28;20041;-69
2021/08/01 11:25:30;;;;;;;8.23;2.60;;;;;;;23.30;54.23;100999.06;5046799;28;20291;-69
2021/08/01 11:28:08;;;;;;;5.45;2.67;;;;;;;23.49;53.67;100995.50;5044431;28;20029;-69
2021/08/01 11:30:52;;;;;;;;;;;;;;;23.80;52.39;101002.53;5053619;28;20033;-69
2021/08/01 11:33:32;;;;;;;6.50;2.35;;;;;;;23.53;53.83;101001.41;5048783;28;19931;-69
2021/08/01 11:36:13;;;;;;;4.63;2.40;;;;;;;23.66;53.65;100999.25;5044405;28;20025;-69
2021/08/01 11:38:48;;;;;;;7.57;2.35;;;;;;;23.69;53.45;101008.84;5058000;28;20033;-69
2021/08/01 11:41:25;;;;;;;9.90;2.65;;;;;;;23.74;54.12;101009.25;5047767;28;20384;-69
2021/08/01 11:44:06;;;;;;;4.97;2.23;;;;;;;23.64;54.47;101003.09;5046314;28;20090;-69
2021/08/01 11:46:54;;;;;;;7.07;2.38;;;;;;;23.37;54.57;101010.84;5039335;28;20037;-68
2021/08/01 11:49:21;;;;;;;5.28;2.50;;;;;;;23.65;53.49;101004.75;5036102;28;20029;-68
2021/08/01 11:51:47;;;;;;;3.00;2.07;;;;;;;23.72;54.21;101011.22;5053835;28;20053;-68
2021/08/01 11:54:13;;;;;;;5.38;2.28;;;;;;;23.89;53.16;101010.50;5047711;28;20302;-68
2021/08/01 11:56:41;;;;;;;3.90;2.30;;;;;;;23.70;53.50;101008.72;5038604;28;20029;-68
2021/08/01 11:59:13;;;;;;;3.13;1.90;;;;;;;23.80;53.00;101007.88;5043355;28;20229;-68
2021/08/01 12:01:39;;;;;;;4.70;2.00;;;;;;;23.60;53.52;101013.22;5028427;28;20098;-68
2021/08/01 12:04:11;;;;;;;4.75;2.13;;;;;;;23.52;54.10;101021.09;5045885;28;20049;-68
2021/08/01 12:06:40;;;;;;;4.03;2.40;;;;;;;23.74;53.50;101018.13;5042096;28;20100;-68
2021/08/01 12:09:16;;;;;;;4.80;2.10;;;;;;;23.61;53.75;101019.41;5048510;28;20205;-68
2021/08/01 12:11:41;;;;;;;9.95;2.17;;;;;;;23.73;53.61;101023.59;5045225;28;20029;-68
2021/08/01 12:14:09;;;;;;;3.10;2.00;;;;;;;23.41;54.39;101026.59;5043056;28;20040;-68
2021/08/01 12:16:34;;;;;;;4.40;1.83;;;;;;;23.34;54.04;101034.34;5047927;28;20049;-68
2021/08/01 12:19:15;;;;;;;4.05;1.80;;;;;;;23.42;54.38;101026.44;5049165;28;20293;-68
2021/08/01 12:21:41;;;;;;;2.35;2.13;;;;;;;23.53;53.94;101017.44;5041541;28;20329;-68
2021/08/01 12:24:06;;;;;;;3.90;1.80;;;;;;;23.36;54.29;101029.72;5037009;28;20075;-68
2021/08/01 12:26:39;;;;;;;2.42;1.60;;;;;;;23.42;53.64;101031.78;5049944;28;20224;-68
2021/08/01 12:29:05;;;;;;;2.67;2.10;;;;;;;23.41;53.22;101024.75;5050158;28;20136;-68
2021/08/01 12:31:31;;;;;;;2.25;1.65;;;;;;;23.22;54.33;101024.78;5039387;28;20066;-68
2021/08/01 12:33:56;;;;;;;3.63;1.80;;;;;;;23.18;54.78;101033.06;5040284;28;20035;-68
2021/08/01 12:36:25;;;;;;;2.20;1.65;;;;;;;23.04;54.89;101033.47;5036575;28;20041;-68
2021/08/01 12:38:51;;;;;;;2.35;1.70;;;;;;;23.16;54.60;101027.03;5040377;28;20048;-68
2021/08/01 12:41:20;;;;;;;3.17;1.50;;;;;;;23.19;54.86;101037.44;5039051;28;20045;-68
2021/08/01 12:43:45;;;;;;;1.77;1.67;;;;;;;23.44;53.77;101037.00;5043287;28;20052;-68
2021/08/01 12:46:17;;;;;;;3.40;1.90;;;;;;;23.08;54.44;101039.38;5037502;28;20294;-68
2021/08/01 12:48:43;;;;;;;2.13;1.92;;;;;;;23.02;54.83;101034.56;5037925;28;20139;-68
2021/08/01 12:51:08;;;;;;;1.67;1.55;;;;;;;23.02;55.12;101034.56;5035445;28;20063;-68
2021/08/01 12:53:36;;;;;;;2.28;1.80;;;;;;;23.08;54.93;101039.38;5045018;28;20051;-68
2021/08/01 12:56:02;;;;;;;2.42;1.40;;;;;;;23.07;54.56;101037.72;5042824;28;20216;-68
2021/08/01 12:58:36;;;;;;;1.92;1.70;;;;;;;23.18;53.97;101040.25;5034104;28;20348;-68
2021/08/01 13:01:06;;;;;;;1.90;1.80;;;;;;;23.36;53.61;101045.75;5042453;28;20303;-68
2021/08/01 13:03:40;;;;;;;1.55;1.45;;;;;;;23.40;53.84;101047.13;5044139;28;20063;-68
2021/08/01 13:06:05;;;;;;;3.78;1.77;;;;;;;23.48;53.52;101046.41;5044891;28;20075;-68